This is the latest recevied weather packets stored in our database for station/object I1SXT-13. If no packets are shown the sender has not sent any weather packets the latest 10 day(s).
| Time | Temp. | Humidity | Pressure | Rain* | Wind** | Luminosity | Snow |
|---|---|---|---|---|---|---|---|
| 1788471264 | 22.22° C | 84% | 1021.7 hPa | 0 mm | - | - | - |
| 1788467668 | 23.33° C | 82% | 1022.7 hPa | 0 mm | - | - | - |
| 1788467368 | 23.89° C | 81% | 1023 hPa | 0 mm | - | - | - |
| 1788467074 | 23.33° C | 81% | 1022.1 hPa | 0 mm | - | - | - |
| 1788464964 | 23.33° C | 82% | 1022.7 hPa | 0 mm | - | - | - |
| 1788463762 | 25° C | 77% | 1021.6 hPa | 0 mm | - | - | - |
| 1788463461 | 25° C | 77% | 1022.1 hPa | 0 mm | - | - | - |
| 1788462567 | 25° C | 73% | 1021.9 hPa | 0 mm | - | - | - |
| 1788461966 | 25° C | 75% | 1021.2 hPa | 0 mm | - | - | - |
| 1788461064 | 25° C | 74% | 1020.8 hPa | 0 mm | - | - | - |
| 1788460764 | 25° C | 76% | 1020.2 hPa | 0 mm | - | - | - |
| 1788459262 | 25° C | 84% | 1020.6 hPa | 0 mm | - | - | - |
| 1788454768 | 27.22° C | 77% | 1020.8 hPa | 0 mm | - | - | - |
| 1788454468 | 27.78° C | 77% | 1020.7 hPa | 0 mm | - | - | - |
| 1788452364 | 28.33° C | 72% | 1020.3 hPa | 0 mm | - | - | - |
| 1788450561 | 28.89° C | 67% | 1021.2 hPa | 0 mm | - | - | - |
| 1788447564 | 30.56° C | 64% | 1021.4 hPa | 0 mm | - | - | - |
| 1788447267 | 30.56° C | 64% | 1020.9 hPa | 0 mm | - | - | - |
| 1788446667 | 31.67° C | 60% | 1021.2 hPa | 0 mm | - | - | - |
| 1788445763 | 31.67° C | 61% | 1021.4 hPa | 0 mm | - | - | - |
| 1788444562 | 31.11° C | 63% | 1020.9 hPa | 0 mm | - | - | - |
| 1788444265 | 31.67° C | 59% | 1021 hPa | 0 mm | - | - | - |
| 1788443962 | 32.22° C | 58% | 1020.6 hPa | 0 mm | - | - | - |
| 1788443361 | 32.22° C | 60% | 1021.2 hPa | 0 mm | - | - | - |
| 1788439473 | 30.56° C | 65% | 1021.5 hPa | 0 mm | - | - | - |
* Rain since midnight (hover to see other rain measurements)
** Current wind speed in m/s (hover to see current wind gust speed)